createdAt,value
2022-12-19T00:00:45.474Z,0.00
2022-12-19T00:01:45.702Z,0.00
2022-12-19T00:02:46.868Z,0.00
2022-12-19T00:03:45.973Z,0.00
2022-12-19T00:04:46.111Z,0.00
2022-12-19T00:05:47.294Z,0.00
2022-12-19T00:06:46.577Z,0.00
2022-12-19T00:07:46.894Z,0.00
2022-12-19T00:08:47.795Z,0.00
2022-12-19T00:09:48.262Z,0.00
2022-12-19T00:10:47.313Z,0.00
2022-12-19T00:11:49.258Z,0.00
2022-12-19T00:12:47.632Z,0.00
2022-12-19T00:13:47.822Z,0.00
2022-12-19T00:14:47.959Z,0.00
2022-12-19T00:15:48.108Z,0.00
2022-12-19T00:16:48.263Z,0.00
2022-12-19T00:17:48.475Z,0.00
2022-12-19T00:18:48.610Z,0.00
2022-12-19T00:19:49.632Z,0.00
2022-12-19T00:20:49.015Z,0.00
2022-12-19T00:21:50.025Z,0.00
2022-12-19T00:22:49.805Z,0.00
2022-12-19T00:23:50.264Z,0.00
2022-12-19T00:24:49.491Z,0.00
2022-12-19T00:25:50.764Z,0.00
2022-12-19T00:26:49.850Z,0.00
2022-12-19T00:27:50.035Z,0.00
2022-12-19T00:28:50.179Z,0.00
2022-12-19T00:29:50.340Z,0.00
2022-12-19T00:30:50.501Z,0.00
2022-12-19T00:31:50.789Z,0.00
2022-12-19T00:32:51.799Z,0.00
2022-12-19T00:33:51.802Z,0.00
2022-12-19T00:34:51.397Z,0.00
2022-12-19T00:35:51.653Z,0.00
2022-12-19T00:36:51.783Z,0.00
2022-12-19T00:37:51.992Z,0.00
2022-12-19T00:38:53.626Z,0.00
2022-12-19T00:39:54.307Z,0.00
2022-12-19T00:40:53.265Z,0.00
2022-12-19T00:41:52.650Z,0.00
2022-12-19T00:42:53.752Z,0.00
2022-12-19T00:43:54.767Z,0.00
2022-12-19T00:44:53.115Z,0.00
2022-12-19T00:45:53.300Z,0.00
2022-12-19T00:46:55.128Z,0.00
2022-12-19T00:47:53.733Z,0.00
2022-12-19T00:48:55.268Z,0.00
2022-12-19T00:49:54.147Z,0.00
2022-12-19T00:50:54.277Z,0.00
2022-12-19T00:51:54.420Z,0.00
2022-12-19T00:52:54.562Z,0.00
2022-12-19T00:53:54.764Z,0.00
2022-12-19T00:54:55.398Z,0.00
2022-12-19T00:55:55.085Z,0.00
2022-12-19T00:56:55.224Z,0.00
2022-12-19T00:57:55.367Z,0.00
2022-12-19T00:58:55.496Z,0.00
2022-12-19T00:59:56.305Z,0.00
2022-12-19T01:00:55.905Z,0.00
2022-12-19T01:01:56.464Z,0.00
2022-12-19T01:02:56.300Z,0.00
2022-12-19T01:04:27.241Z,0.00
2022-12-19T01:04:59.269Z,0.00
2022-12-19T01:05:56.756Z,0.00
2022-12-19T01:07:01.713Z,0.00
2022-12-19T01:07:58.078Z,0.00
2022-12-19T01:08:57.286Z,0.00
2022-12-19T01:09:57.421Z,0.00
2022-12-19T01:10:58.303Z,0.00
2022-12-19T01:11:57.819Z,0.00
2022-12-19T01:12:57.850Z,0.00
2022-12-19T01:13:58.014Z,0.00
2022-12-19T01:15:04.677Z,0.00
2022-12-19T01:15:59.422Z,0.00
2022-12-19T01:16:58.551Z,0.00
2022-12-19T01:17:58.719Z,0.00
2022-12-19T01:19:00.316Z,0.00
2022-12-19T01:19:59.019Z,0.00
2022-12-19T01:20:59.772Z,0.00
2022-12-19T01:21:59.447Z,0.00
2022-12-19T01:23:00.007Z,0.00
2022-12-19T01:24:00.861Z,0.00
2022-12-19T01:24:59.872Z,0.00
2022-12-19T01:26:00.062Z,0.00
2022-12-19T01:27:00.774Z,0.00
2022-12-19T01:28:00.425Z,0.00
2022-12-19T01:29:01.276Z,0.00
2022-12-19T01:30:02.271Z,0.00
2022-12-19T01:31:02.274Z,0.00
2022-12-19T01:32:01.884Z,0.00
2022-12-19T01:33:01.313Z,0.00
2022-12-19T01:34:02.272Z,0.00
2022-12-19T01:35:01.820Z,0.00
2022-12-19T01:36:01.855Z,0.00
2022-12-19T01:37:02.040Z,0.00
2022-12-19T01:38:08.422Z,0.00
2022-12-19T01:39:03.476Z,0.00
2022-12-19T01:40:02.667Z,0.00
2022-12-19T01:41:03.810Z,0.00
2022-12-19T01:42:03.776Z,0.00
2022-12-19T01:43:03.289Z,0.00
2022-12-19T01:44:03.469Z,0.00
2022-12-19T01:45:03.636Z,0.00
2022-12-19T01:46:03.867Z,0.00
2022-12-19T01:47:03.945Z,0.00
2022-12-19T01:48:04.109Z,0.00
2022-12-19T01:49:04.272Z,0.00
2022-12-19T01:50:04.425Z,0.00
2022-12-19T01:51:04.823Z,0.00
2022-12-19T01:52:05.778Z,0.00
2022-12-19T01:53:05.023Z,0.00
2022-12-19T01:54:05.188Z,0.00
2022-12-19T01:55:06.367Z,0.00
2022-12-19T01:56:08.293Z,0.00
2022-12-19T01:57:05.649Z,0.00
2022-12-19T01:58:05.823Z,0.00
2022-12-19T01:59:07.022Z,0.00
2022-12-19T02:00:07.791Z,0.00
2022-12-19T02:01:06.538Z,0.00
2022-12-19T02:02:06.746Z,0.00
2022-12-19T02:03:07.335Z,0.00
2022-12-19T02:04:07.773Z,0.00
2022-12-19T02:05:07.790Z,0.00
2022-12-19T02:06:09.744Z,0.00
2022-12-19T02:07:15.958Z,0.00
2022-12-19T02:08:10.113Z,0.00
2022-12-19T02:09:08.289Z,0.00
2022-12-19T02:10:08.043Z,0.00
2022-12-19T02:11:08.084Z,0.00
2022-12-19T02:12:08.261Z,0.00
2022-12-19T02:13:08.418Z,0.00
2022-12-19T02:14:08.568Z,0.00
2022-12-19T02:15:09.749Z,0.00
2022-12-19T02:16:08.930Z,0.00
2022-12-19T02:17:08.986Z,0.00
2022-12-19T02:18:09.189Z,0.00
2022-12-19T02:19:09.393Z,0.00
2022-12-19T02:20:09.538Z,0.00
2022-12-19T02:21:10.294Z,0.00
2022-12-19T02:22:12.716Z,0.00
2022-12-19T02:23:10.305Z,0.00
2022-12-19T02:24:10.322Z,0.00
2022-12-19T02:25:10.908Z,0.00
2022-12-19T02:26:11.301Z,0.00
2022-12-19T02:27:11.867Z,0.00
2022-12-19T02:28:10.977Z,0.00
2022-12-19T02:29:11.251Z,0.00
2022-12-19T02:30:11.448Z,0.00
2022-12-19T02:31:16.787Z,0.00
2022-12-19T02:32:12.757Z,0.00
2022-12-19T02:33:11.998Z,0.00
2022-12-19T02:34:12.149Z,0.00
2022-12-19T02:35:12.269Z,0.00
2022-12-19T02:36:12.497Z,0.00
2022-12-19T02:37:12.616Z,0.00
2022-12-19T02:38:13.761Z,0.00
2022-12-19T02:39:13.017Z,0.00
2022-12-19T02:40:13.244Z,0.00
2022-12-19T02:41:13.478Z,0.00
2022-12-19T02:42:14.605Z,0.00
2022-12-19T02:43:14.272Z,0.00
2022-12-19T02:44:13.889Z,0.00
2022-12-19T02:45:15.611Z,0.00
2022-12-19T02:46:15.887Z,0.00
2022-12-19T02:47:15.269Z,0.00
2022-12-19T02:48:19.280Z,0.00
2022-12-19T02:49:19.170Z,0.00
2022-12-19T02:50:16.768Z,0.00
2022-12-19T02:51:15.113Z,0.00
2022-12-19T02:52:15.356Z,0.00
2022-12-19T02:53:15.487Z,0.00
2022-12-19T02:54:16.318Z,0.00
2022-12-19T02:55:16.039Z,0.00
2022-12-19T02:56:16.062Z,0.00
2022-12-19T02:57:16.239Z,0.00
2022-12-19T02:58:17.281Z,0.00
2022-12-19T02:59:16.532Z,0.00
2022-12-19T03:00:16.672Z,0.00
2022-12-19T03:01:16.978Z,0.00
2022-12-19T03:02:19.032Z,0.00
2022-12-19T03:03:17.299Z,0.00
2022-12-19T03:04:17.401Z,0.00
2022-12-19T03:05:17.551Z,0.00
2022-12-19T03:06:18.798Z,0.00
2022-12-19T03:07:18.005Z,0.00
2022-12-19T03:08:19.157Z,0.00
2022-12-19T03:09:18.781Z,0.00
2022-12-19T03:10:19.422Z,0.00
2022-12-19T03:11:18.548Z,0.00
2022-12-19T03:12:18.648Z,0.00
2022-12-19T03:13:18.785Z,0.00
2022-12-19T03:14:18.957Z,0.00
2022-12-19T03:15:19.841Z,0.00
2022-12-19T03:16:19.353Z,0.00
2022-12-19T03:17:19.414Z,0.00
2022-12-19T03:18:20.335Z,0.00
2022-12-19T03:19:20.302Z,0.00
2022-12-19T03:20:20.789Z,0.00
2022-12-19T03:21:20.798Z,0.00
2022-12-19T03:22:20.302Z,0.00
2022-12-19T03:23:21.157Z,0.00
2022-12-19T03:24:20.652Z,0.00
2022-12-19T03:25:20.819Z,0.00
2022-12-19T03:26:21.091Z,0.00
2022-12-19T03:27:21.248Z,0.00
2022-12-19T03:28:21.407Z,0.00
2022-12-19T03:29:21.584Z,0.00
2022-12-19T03:30:21.766Z,0.00
2022-12-19T03:31:21.935Z,0.00
2022-12-19T03:32:22.178Z,0.00
2022-12-19T03:33:24.262Z,0.00
2022-12-19T03:34:22.503Z,0.00
2022-12-19T03:35:22.707Z,0.00
2022-12-19T03:36:22.878Z,0.00
2022-12-19T03:37:23.075Z,0.00
2022-12-19T03:38:23.236Z,0.00
2022-12-19T03:39:23.417Z,0.00
2022-12-19T03:40:23.563Z,0.00
2022-12-19T03:41:23.772Z,0.00
2022-12-19T03:42:24.734Z,0.00
2022-12-19T03:43:24.107Z,0.00
2022-12-19T03:44:24.326Z,0.00
2022-12-19T03:45:24.545Z,0.00
2022-12-19T03:46:24.745Z,0.00
2022-12-19T03:47:25.971Z,0.00
2022-12-19T03:48:25.804Z,0.00
2022-12-19T03:49:25.320Z,0.00
2022-12-19T03:50:26.350Z,0.00
2022-12-19T03:51:25.702Z,0.00
2022-12-19T03:52:25.890Z,0.00
2022-12-19T03:53:27.070Z,0.00
2022-12-19T03:54:26.208Z,0.00
2022-12-19T03:55:28.307Z,0.00
2022-12-19T03:56:27.400Z,0.00
2022-12-19T03:57:27.344Z,0.00
2022-12-19T03:58:28.306Z,0.00
2022-12-19T03:59:27.176Z,0.00
2022-12-19T04:00:27.315Z,0.00
2022-12-19T04:01:27.591Z,0.00
2022-12-19T04:02:28.692Z,0.00
2022-12-19T04:03:28.997Z,0.00
2022-12-19T04:04:28.076Z,0.00
2022-12-19T04:05:28.270Z,0.00
2022-12-19T04:06:28.451Z,0.00
2022-12-19T04:07:28.657Z,0.00
2022-12-19T04:08:28.881Z,0.00
2022-12-19T04:09:29.051Z,0.00
2022-12-19T04:10:29.272Z,0.00
2022-12-19T04:11:29.451Z,0.00
2022-12-19T04:12:30.406Z,0.00
2022-12-19T04:13:29.823Z,0.00
2022-12-19T04:14:30.022Z,0.00
2022-12-19T04:15:30.833Z,0.00
2022-12-19T04:16:31.350Z,0.00
2022-12-19T04:17:30.621Z,0.00
2022-12-19T04:18:30.784Z,0.00
2022-12-19T04:19:30.962Z,0.00
2022-12-19T04:20:31.678Z,0.00
2022-12-19T04:21:31.837Z,0.00
2022-12-19T04:22:31.541Z,0.00
2022-12-19T04:23:31.693Z,0.00
2022-12-19T04:24:32.359Z,0.00
2022-12-19T04:25:32.013Z,0.00
2022-12-19T04:26:32.177Z,0.00
2022-12-19T04:27:32.460Z,0.00
2022-12-19T04:28:32.499Z,0.00
2022-12-19T04:29:32.660Z,0.00
2022-12-19T04:30:36.713Z,0.00
2022-12-19T04:31:33.840Z,0.00
2022-12-19T04:32:33.160Z,0.00
2022-12-19T04:33:33.857Z,0.00
2022-12-19T04:34:33.508Z,0.00
2022-12-19T04:35:34.356Z,0.00
2022-12-19T04:36:34.822Z,0.00
2022-12-19T04:37:34.818Z,0.00
2022-12-19T04:38:34.195Z,0.00
2022-12-19T04:39:34.348Z,0.00
2022-12-19T04:40:39.344Z,0.00
2022-12-19T04:41:36.608Z,0.00
2022-12-19T04:42:34.929Z,0.00
2022-12-19T04:43:35.058Z,0.00
2022-12-19T04:44:35.204Z,0.00
2022-12-19T04:45:35.396Z,0.00
2022-12-19T04:46:35.635Z,0.00
2022-12-19T04:47:35.817Z,0.00
2022-12-19T04:48:36.000Z,0.00
2022-12-19T04:49:36.124Z,0.00
2022-12-19T04:50:37.321Z,0.00
2022-12-19T04:51:37.329Z,0.00
2022-12-19T04:52:36.572Z,0.00
2022-12-19T04:53:36.729Z,0.00
2022-12-19T04:54:36.905Z,0.00
2022-12-19T04:55:37.821Z,0.00
2022-12-19T04:56:37.211Z,0.00
2022-12-19T04:57:37.462Z,0.00
2022-12-19T04:58:38.369Z,0.00
2022-12-19T04:59:37.779Z,0.00
2022-12-19T05:00:38.367Z,0.00
2022-12-19T05:01:38.928Z,0.00
2022-12-19T05:02:39.931Z,0.00
2022-12-19T05:03:38.646Z,0.00
2022-12-19T05:04:38.737Z,0.00
2022-12-19T05:05:39.819Z,0.00
2022-12-19T05:06:39.132Z,0.00
2022-12-19T05:07:39.351Z,0.00
2022-12-19T05:08:40.324Z,0.00
2022-12-19T05:09:40.685Z,0.00
2022-12-19T05:10:39.956Z,0.00
2022-12-19T05:11:40.761Z,0.00
2022-12-19T05:12:40.325Z,0.00
2022-12-19T05:13:40.602Z,0.00
2022-12-19T05:14:40.659Z,0.00
2022-12-19T05:15:41.838Z,0.00
2022-12-19T05:16:40.976Z,0.00
2022-12-19T05:17:41.861Z,0.00
2022-12-19T05:18:41.865Z,0.00
2022-12-19T05:19:42.324Z,0.00
2022-12-19T05:20:41.714Z,0.00
2022-12-19T05:21:41.855Z,0.00
2022-12-19T05:22:42.861Z,0.00
2022-12-19T05:23:42.105Z,0.00
2022-12-19T05:24:42.262Z,0.00
2022-12-19T05:25:42.371Z,0.00
2022-12-19T05:26:42.633Z,0.00
2022-12-19T05:27:42.730Z,0.00
2022-12-19T05:28:43.910Z,0.00
2022-12-19T05:29:43.105Z,0.00
2022-12-19T05:30:45.650Z,0.00
2022-12-19T05:31:44.493Z,0.00
2022-12-19T05:32:43.621Z,0.00
2022-12-19T05:33:44.375Z,0.00
2022-12-19T05:34:44.862Z,0.00
2022-12-19T05:35:44.091Z,0.00
2022-12-19T05:36:44.273Z,0.00
2022-12-19T05:37:45.195Z,0.00
2022-12-19T05:38:44.602Z,0.00
2022-12-19T05:39:45.688Z,0.00
2022-12-19T05:40:45.870Z,0.00
2022-12-19T05:41:49.011Z,0.00
2022-12-19T05:42:46.304Z,0.00
2022-12-19T05:43:46.917Z,0.00
2022-12-19T05:44:47.322Z,0.00
2022-12-19T05:45:45.804Z,0.00
2022-12-19T05:46:46.032Z,0.00
2022-12-19T05:47:46.885Z,0.00
2022-12-19T05:48:46.272Z,0.00
2022-12-19T05:49:46.442Z,0.00
2022-12-19T05:50:47.379Z,0.00
2022-12-19T05:51:48.256Z,0.00
2022-12-19T05:52:47.000Z,0.00
2022-12-19T05:53:47.191Z,0.00
2022-12-19T05:54:47.862Z,0.00
2022-12-19T05:55:47.502Z,0.00
2022-12-19T05:56:48.650Z,0.00
2022-12-19T05:57:47.797Z,0.00
2022-12-19T05:58:47.964Z,0.00
2022-12-19T05:59:48.959Z,0.00
2022-12-19T06:00:48.343Z,0.00
2022-12-19T06:01:49.512Z,0.00
2022-12-19T06:02:48.882Z,0.00
2022-12-19T06:03:48.954Z,0.00
2022-12-19T06:04:49.134Z,0.00
2022-12-19T06:05:49.279Z,0.00
2022-12-19T06:06:50.328Z,0.00
2022-12-19T06:07:50.202Z,0.00
2022-12-19T06:08:49.757Z,0.00
2022-12-19T06:09:49.949Z,0.00
2022-12-19T06:10:50.109Z,0.00
2022-12-19T06:11:50.277Z,0.00
2022-12-19T06:12:51.836Z,0.00
2022-12-19T06:13:50.597Z,0.00
2022-12-19T06:14:50.759Z,0.00
2022-12-19T06:15:52.010Z,0.00
2022-12-19T06:16:51.145Z,0.00
2022-12-19T06:17:51.298Z,0.00
2022-12-19T06:18:51.481Z,0.00
2022-12-19T06:19:53.323Z,0.00
2022-12-19T06:20:51.858Z,0.00
2022-12-19T06:21:52.034Z,0.00
2022-12-19T06:22:52.213Z,0.00
2022-12-19T06:23:53.330Z,0.00
2022-12-19T06:24:53.338Z,0.00
2022-12-19T06:25:52.736Z,0.00
2022-12-19T06:26:54.325Z,0.00
2022-12-19T06:27:53.076Z,0.00
2022-12-19T06:28:53.834Z,0.00
2022-12-19T06:29:53.459Z,0.00
2022-12-19T06:30:54.327Z,0.00
2022-12-19T06:31:54.059Z,0.00
2022-12-19T06:32:53.976Z,0.00
2022-12-19T06:33:54.871Z,0.00
2022-12-19T06:35:09.706Z,0.00
2022-12-19T06:35:57.345Z,0.00
2022-12-19T06:36:55.831Z,0.00
2022-12-19T06:38:00.733Z,0.00
2022-12-19T06:38:57.071Z,0.00
2022-12-19T06:39:55.299Z,0.00
2022-12-19T06:40:56.339Z,0.00
2022-12-19T06:41:55.586Z,0.00
2022-12-19T06:42:57.193Z,0.00
2022-12-19T06:43:55.955Z,0.00
2022-12-19T06:44:56.476Z,0.00
2022-12-19T06:45:56.898Z,0.00
2022-12-19T06:46:57.491Z,0.00
2022-12-19T06:47:56.655Z,0.00
2022-12-19T06:48:57.831Z,0.00
2022-12-19T06:49:57.841Z,0.00
2022-12-19T06:50:57.107Z,0.00
2022-12-19T06:51:57.838Z,0.00
2022-12-19T06:52:58.333Z,0.00
2022-12-19T06:53:57.629Z,0.00
2022-12-19T06:54:57.849Z,0.00
2022-12-19T06:55:58.870Z,0.00
2022-12-19T06:56:58.832Z,0.00
2022-12-19T06:57:58.342Z,0.00
2022-12-19T06:58:59.342Z,0.00
2022-12-19T06:59:58.755Z,0.00
2022-12-19T07:00:58.998Z,0.00
2022-12-19T07:01:59.123Z,0.00
2022-12-19T07:02:59.538Z,0.00
2022-12-19T07:04:00.334Z,0.00
2022-12-19T07:04:59.722Z,0.00
2022-12-19T07:05:59.912Z,0.00
2022-12-19T07:07:00.105Z,0.00
2022-12-19T07:08:00.263Z,0.00
2022-12-19T07:09:00.444Z,0.00
2022-12-19T07:10:00.623Z,0.00
2022-12-19T07:11:00.867Z,0.00
2022-12-19T07:12:01.404Z,0.00
2022-12-19T07:13:01.174Z,0.00
2022-12-19T07:14:02.354Z,0.00
2022-12-19T07:15:01.507Z,0.00
2022-12-19T07:16:02.420Z,0.00
2022-12-19T07:17:01.853Z,0.00
2022-12-19T07:18:02.978Z,0.00
2022-12-19T07:19:02.839Z,0.00
2022-12-19T07:20:04.207Z,0.00
2022-12-19T07:21:03.338Z,0.00
2022-12-19T07:22:02.830Z,0.00
2022-12-19T07:23:02.962Z,0.00
2022-12-19T07:24:03.101Z,0.00
2022-12-19T07:25:03.280Z,0.00
2022-12-19T07:26:04.373Z,0.00
2022-12-19T07:27:03.619Z,0.00
2022-12-19T07:28:04.699Z,0.00
2022-12-19T07:29:03.943Z,0.00
2022-12-19T07:30:04.103Z,0.00
2022-12-19T07:31:04.878Z,0.00
2022-12-19T07:32:04.583Z,0.00
2022-12-19T07:33:05.642Z,0.00
2022-12-19T07:34:04.904Z,0.00
2022-12-19T07:35:04.979Z,0.00
2022-12-19T07:36:05.151Z,0.00
2022-12-19T07:37:05.353Z,0.00
2022-12-19T07:38:05.519Z,0.00
2022-12-19T07:39:05.694Z,0.00
2022-12-19T07:40:05.889Z,0.00
2022-12-19T07:41:06.853Z,0.00
2022-12-19T07:42:06.252Z,0.00
2022-12-19T07:43:06.413Z,0.00
2022-12-19T07:44:06.613Z,0.00
2022-12-19T07:45:06.777Z,0.00
2022-12-19T07:46:07.918Z,0.00
2022-12-19T07:47:07.889Z,0.00
2022-12-19T07:48:08.430Z,0.00
2022-12-19T07:49:08.366Z,0.00
2022-12-19T07:50:07.764Z,0.00
2022-12-19T07:51:07.943Z,0.00
2022-12-19T07:52:08.884Z,0.00
2022-12-19T07:53:08.265Z,0.00
2022-12-19T07:54:08.462Z,5.62
2022-12-19T07:55:08.605Z,5.62
2022-12-19T07:56:09.843Z,5.62
2022-12-19T07:57:09.881Z,5.62
2022-12-19T07:58:09.153Z,5.62
2022-12-19T07:59:09.340Z,5.62
2022-12-19T08:00:09.519Z,5.62
2022-12-19T08:01:09.795Z,5.62
2022-12-19T08:02:10.091Z,5.62
2022-12-19T08:03:10.794Z,5.62
2022-12-19T08:04:11.432Z,5.62
2022-12-19T08:05:10.547Z,5.62
2022-12-19T08:06:10.737Z,11.25
2022-12-19T08:07:10.929Z,11.25
2022-12-19T08:08:11.088Z,11.25
2022-12-19T08:09:11.272Z,11.25
2022-12-19T08:10:11.439Z,11.25
2022-12-19T08:11:11.605Z,11.25
2022-12-19T08:12:11.784Z,16.88
2022-12-19T08:13:11.948Z,16.88
2022-12-19T08:14:13.348Z,16.88
2022-12-19T08:15:12.266Z,16.88
2022-12-19T08:16:12.451Z,16.88
2022-12-19T08:17:21.146Z,22.50
2022-12-19T08:18:15.839Z,22.50
2022-12-19T08:19:13.193Z,22.50
2022-12-19T08:20:13.237Z,22.50
2022-12-19T08:21:14.411Z,22.50
2022-12-19T08:22:13.547Z,22.50
2022-12-19T08:23:13.739Z,22.50
2022-12-19T08:24:14.845Z,22.50
2022-12-19T08:25:14.839Z,22.50
2022-12-19T08:26:14.355Z,22.50
2022-12-19T08:27:14.548Z,22.50
2022-12-19T08:28:17.213Z,22.50
2022-12-19T08:29:15.396Z,22.50
2022-12-19T08:30:16.847Z,22.50
2022-12-19T08:31:15.328Z,22.50
2022-12-19T08:32:20.558Z,22.50
2022-12-19T08:33:17.566Z,22.50
2022-12-19T08:34:16.451Z,22.50
2022-12-19T08:35:15.850Z,28.12
2022-12-19T08:36:16.034Z,28.12
2022-12-19T08:37:16.222Z,28.12
2022-12-19T08:38:16.413Z,28.12
2022-12-19T08:39:16.572Z,28.12
2022-12-19T08:40:17.400Z,28.12
2022-12-19T08:41:16.974Z,33.75
2022-12-19T08:42:17.195Z,33.75
2022-12-19T08:43:17.410Z,33.75
2022-12-19T08:44:17.601Z,33.75
2022-12-19T08:45:18.414Z,33.75
2022-12-19T08:46:19.022Z,39.38
2022-12-19T08:47:18.856Z,39.38
2022-12-19T08:48:18.889Z,39.38
2022-12-19T08:49:19.225Z,45.00
2022-12-19T08:50:18.634Z,45.00
2022-12-19T08:51:19.383Z,45.00
2022-12-19T08:52:19.858Z,39.38
2022-12-19T08:53:25.854Z,39.38
2022-12-19T08:54:21.340Z,39.38
2022-12-19T08:55:19.448Z,45.00
2022-12-19T08:56:19.691Z,45.00
2022-12-19T08:57:19.920Z,45.00
2022-12-19T08:58:20.951Z,45.00
2022-12-19T08:59:30.536Z,45.00
2022-12-19T09:00:21.218Z,45.00
2022-12-19T09:01:20.474Z,50.62
2022-12-19T09:02:20.665Z,50.62
2022-12-19T09:03:22.396Z,50.62
2022-12-19T09:05:58.358Z,50.62
2022-12-19T09:06:03.859Z,50.62
2022-12-19T09:06:22.411Z,50.62
2022-12-19T09:07:21.527Z,50.62
2022-12-19T09:08:22.400Z,45.00
2022-12-19T09:09:24.357Z,45.00
2022-12-19T09:10:22.105Z,45.00
2022-12-19T09:11:22.857Z,45.00
2022-12-19T09:12:22.493Z,50.62
2022-12-19T09:13:23.364Z,50.62
2022-12-19T09:14:22.885Z,50.62
2022-12-19T09:15:24.365Z,56.25
2022-12-19T09:16:23.988Z,61.88
2022-12-19T09:17:23.444Z,61.88
2022-12-19T09:18:24.423Z,61.88
2022-12-19T09:19:23.878Z,61.88
2022-12-19T09:20:24.103Z,61.88
2022-12-19T09:21:24.393Z,56.25
2022-12-19T09:22:29.266Z,56.25
2022-12-19T09:23:25.547Z,56.25
2022-12-19T09:24:25.400Z,56.25
2022-12-19T09:25:24.918Z,56.25
2022-12-19T09:26:26.361Z,56.25
2022-12-19T09:27:26.857Z,50.62
2022-12-19T09:28:27.893Z,50.62
2022-12-19T09:29:33.525Z,45.00
2022-12-19T09:30:27.668Z,45.00
2022-12-19T09:31:25.914Z,45.00
2022-12-19T09:32:27.361Z,45.00
2022-12-19T09:33:26.259Z,45.00
2022-12-19T09:34:33.059Z,50.62
2022-12-19T09:35:30.534Z,50.62
2022-12-19T09:36:28.017Z,50.62
2022-12-19T09:37:27.084Z,50.62
2022-12-19T09:38:27.284Z,45.00
2022-12-19T09:39:27.584Z,50.62
2022-12-19T09:40:28.620Z,50.62
2022-12-19T09:41:27.921Z,50.62
2022-12-19T09:42:27.967Z,50.62
2022-12-19T09:43:28.869Z,56.25
2022-12-19T09:44:28.271Z,61.88
2022-12-19T09:45:32.699Z,67.50
2022-12-19T09:46:28.710Z,67.50
2022-12-19T09:47:28.818Z,73.12
2022-12-19T09:48:29.018Z,78.75
2022-12-19T09:49:29.244Z,78.75
2022-12-19T09:50:29.520Z,78.75
2022-12-19T09:51:29.614Z,78.75
2022-12-19T09:52:31.613Z,84.38
2022-12-19T09:53:30.908Z,78.75
2022-12-19T09:54:30.910Z,78.75
2022-12-19T09:55:31.377Z,78.75
2022-12-19T09:56:31.370Z,78.75
2022-12-19T09:57:31.880Z,78.75
2022-12-19T09:58:31.907Z,78.75
2022-12-19T09:59:41.241Z,78.75
2022-12-19T10:00:33.379Z,78.75
2022-12-19T10:01:31.614Z,78.75
2022-12-19T10:02:31.792Z,84.38
2022-12-19T10:03:38.691Z,84.38
2022-12-19T10:04:33.931Z,90.00
2022-12-19T10:05:49.612Z,90.00
2022-12-19T10:07:07.616Z,95.62
2022-12-19T10:08:01.518Z,101.25
2022-12-19T10:08:37.351Z,101.25
2022-12-19T10:12:00.249Z,106.88
2022-12-19T10:12:35.428Z,106.88
2022-12-19T10:12:45.180Z,106.88
2022-12-19T10:12:45.819Z,106.88
2022-12-19T10:13:34.634Z,101.25
2022-12-19T10:14:33.830Z,101.25
2022-12-19T10:15:34.059Z,101.25
2022-12-19T10:16:34.201Z,101.25
2022-12-19T10:17:34.396Z,101.25
2022-12-19T10:18:34.591Z,101.25
2022-12-19T10:19:34.764Z,95.62
2022-12-19T10:20:34.973Z,95.62
2022-12-19T10:22:08.089Z,95.62
2022-12-19T10:22:39.738Z,95.62
2022-12-19T10:23:35.592Z,90.00
2022-12-19T10:24:36.374Z,84.38
2022-12-19T10:25:35.916Z,84.38
2022-12-19T10:26:36.102Z,78.75
2022-12-19T10:27:36.296Z,73.12
2022-12-19T10:28:37.492Z,73.12
2022-12-19T10:29:37.385Z,73.12
2022-12-19T10:30:36.791Z,73.12
2022-12-19T10:31:37.076Z,73.12
2022-12-19T10:32:37.195Z,73.12
2022-12-19T10:33:37.385Z,73.12
2022-12-19T10:34:40.859Z,73.12
2022-12-19T10:35:38.378Z,73.12
2022-12-19T10:37:12.460Z,67.50
2022-12-19T10:37:45.659Z,61.88
2022-12-19T10:38:45.475Z,61.88
2022-12-19T10:39:39.430Z,61.88
2022-12-19T10:40:39.404Z,67.50
2022-12-19T10:41:43.983Z,67.50
2022-12-19T10:42:41.043Z,73.12
2022-12-19T10:43:44.052Z,73.12
2022-12-19T10:44:41.950Z,73.12
2022-12-19T10:45:40.421Z,78.75
2022-12-19T10:46:40.938Z,78.75
2022-12-19T10:47:40.773Z,78.75
2022-12-19T10:48:40.161Z,78.75
2022-12-19T10:49:40.322Z,78.75
2022-12-19T10:50:41.438Z,78.75
2022-12-19T10:51:40.731Z,78.75
2022-12-19T10:52:40.954Z,78.75
2022-12-19T10:53:41.218Z,78.75
2022-12-19T10:54:41.293Z,78.75
2022-12-19T10:55:41.492Z,78.75
2022-12-19T10:56:41.658Z,78.75
2022-12-19T10:57:42.424Z,78.75
2022-12-19T10:58:43.744Z,78.75
2022-12-19T10:59:42.239Z,73.12
2022-12-19T11:00:42.404Z,73.12
2022-12-19T11:01:42.726Z,73.12
2022-12-19T11:02:44.797Z,73.12
2022-12-19T11:03:43.054Z,73.12
2022-12-19T11:04:43.082Z,73.12
2022-12-19T11:05:44.884Z,73.12
2022-12-19T11:06:43.377Z,73.12
2022-12-19T11:07:43.550Z,67.50
2022-12-19T11:08:44.979Z,67.50
2022-12-19T11:09:49.934Z,67.50
2022-12-19T11:11:13.828Z,67.50
2022-12-19T11:14:40.821Z,67.50
2022-12-19T11:17:11.663Z,61.88
2022-12-19T11:19:08.940Z,50.62
2022-12-19T11:19:52.768Z,50.62
2022-12-19T11:19:56.569Z,56.25
2022-12-19T11:19:56.601Z,45.00
2022-12-19T11:21:04.385Z,45.00
2022-12-19T11:27:25.494Z,45.00
2022-12-19T11:29:19.608Z,39.38
2022-12-19T11:29:30.355Z,39.38
2022-12-19T11:29:31.661Z,39.38
2022-12-19T11:29:32.143Z,39.38
2022-12-19T11:29:43.195Z,33.75
2022-12-19T11:30:08.456Z,33.75
2022-12-19T11:30:08.652Z,33.75
2022-12-19T11:30:34.346Z,39.38
2022-12-19T11:30:46.601Z,39.38
2022-12-19T11:30:46.943Z,39.38
2022-12-19T11:32:32.153Z,33.75
2022-12-19T11:32:52.104Z,33.75
2022-12-19T11:33:49.556Z,33.75
2022-12-19T11:34:48.696Z,33.75
2022-12-19T11:35:49.904Z,33.75
2022-12-19T11:36:49.054Z,33.75
2022-12-19T11:37:53.840Z,39.38
2022-12-19T11:38:50.410Z,39.38
2022-12-19T11:39:50.484Z,39.38
2022-12-19T11:40:50.027Z,33.75
2022-12-19T11:41:49.996Z,33.75
2022-12-19T11:43:10.965Z,33.75
2022-12-19T11:43:52.884Z,33.75
2022-12-19T11:44:51.890Z,39.38
2022-12-19T11:45:51.395Z,39.38
2022-12-19T11:46:51.931Z,45.00
2022-12-19T11:47:51.081Z,39.38
2022-12-19T11:48:51.258Z,39.38
2022-12-19T11:49:51.460Z,45.00
2022-12-19T11:50:51.644Z,45.00
2022-12-19T11:51:52.436Z,45.00
2022-12-19T11:53:14.635Z,45.00
2022-12-19T11:53:54.086Z,45.00
2022-12-19T11:54:52.292Z,50.62
2022-12-19T11:55:52.373Z,50.62
2022-12-19T11:56:53.910Z,45.00
2022-12-19T11:57:52.806Z,45.00
2022-12-19T11:58:54.400Z,50.62
2022-12-19T11:59:53.153Z,56.25
2022-12-19T12:00:53.303Z,56.25
2022-12-19T12:01:54.482Z,56.25
2022-12-19T12:02:54.444Z,61.88
2022-12-19T12:03:59.218Z,61.88
2022-12-19T12:04:55.030Z,61.88
2022-12-19T12:05:54.177Z,61.88
2022-12-19T12:06:54.984Z,61.88
2022-12-19T12:09:03.591Z,61.88
2022-12-19T12:10:53.824Z,61.88
2022-12-19T12:15:13.541Z,61.88
2022-12-19T12:18:01.389Z,61.88
2022-12-19T12:19:12.553Z,56.25
2022-12-19T12:21:57.694Z,56.25
2022-12-19T12:23:36.135Z,56.25
2022-12-19T12:27:29.811Z,56.25
2022-12-19T12:28:26.506Z,50.62
2022-12-19T12:30:14.651Z,50.62
2022-12-19T12:31:01.791Z,56.25
2022-12-19T12:31:05.559Z,56.25
2022-12-19T12:31:07.147Z,56.25
2022-12-19T12:31:09.680Z,56.25
2022-12-19T12:31:14.946Z,56.25
2022-12-19T12:31:15.728Z,56.25
2022-12-19T12:31:27.901Z,56.25
2022-12-19T12:31:38.992Z,56.25
2022-12-19T12:31:44.251Z,56.25
2022-12-19T12:31:45.497Z,56.25
2022-12-19T12:31:49.210Z,56.25
2022-12-19T12:31:49.211Z,56.25
2022-12-19T12:31:52.739Z,56.25
2022-12-19T12:35:33.275Z,56.25
2022-12-19T12:35:40.502Z,56.25
2022-12-19T12:35:42.377Z,50.62
2022-12-19T12:35:52.371Z,56.25
2022-12-19T12:35:57.121Z,56.25
2022-12-19T12:39:02.906Z,67.50
2022-12-19T12:40:03.408Z,67.50
2022-12-19T12:41:00.750Z,61.88
2022-12-19T12:42:00.941Z,61.88
2022-12-19T12:43:01.978Z,61.88
2022-12-19T12:44:01.944Z,56.25
2022-12-19T12:45:02.412Z,56.25
2022-12-19T12:46:01.682Z,56.25
2022-12-19T12:47:01.827Z,56.25
2022-12-19T12:48:01.947Z,56.25
2022-12-19T12:49:02.136Z,56.25
2022-12-19T12:50:02.330Z,61.88
2022-12-19T12:51:02.511Z,61.88
2022-12-19T12:52:02.668Z,61.88
2022-12-19T12:53:02.845Z,61.88
2022-12-19T12:54:03.026Z,61.88
2022-12-19T12:55:03.197Z,61.88
2022-12-19T12:56:05.679Z,61.88
2022-12-19T12:57:03.611Z,61.88
2022-12-19T12:58:04.218Z,61.88
2022-12-19T12:59:03.980Z,61.88
2022-12-19T13:00:04.917Z,61.88
2022-12-19T13:01:04.376Z,61.88
2022-12-19T13:02:04.624Z,67.50
2022-12-19T13:03:05.629Z,67.50
2022-12-19T13:04:04.920Z,67.50
2022-12-19T13:05:05.160Z,73.12
2022-12-19T13:06:05.353Z,73.12
2022-12-19T13:07:05.573Z,73.12
2022-12-19T13:08:06.913Z,78.75
2022-12-19T13:09:05.961Z,78.75
2022-12-19T13:10:06.491Z,78.75
2022-12-19T13:11:07.445Z,78.75
2022-12-19T13:12:06.919Z,78.75
2022-12-19T13:13:10.924Z,73.12
2022-12-19T13:14:08.784Z,73.12
2022-12-19T13:15:06.929Z,73.12